Terminal Aerodrome Forecast
Issued by NWS

Home | Current Version | Previous Version | Text Only | Print | Product List | Glossary On
Versions: 1 2 3 4 5 6 7 8 9 10 11 12 13 14 15 16 17 18 19 20 21
000
FTUS43 KDMX 211722
TAFOTM
TAF
KOTM 211722Z 2118/2218 11008KT 6SM BR BKN015 OVC035
      TEMPO 2118/2121 3SM -DZ BR BKN008 OVC015
     FM212100 11007KT 2SM -DZ BR OVC004
     FM220000 09007KT 2SM -RA BR OVC004
     FM220900 12008KT 1SM BR VCSH OVC004
     FM221200 14008KT 1 1/2SM BR BKN004=

USA.gov is the U.S. government's official web portal to all federal, state and local government web resources and services.